Main page
METAR-TAF:

METAR-TAF

Airports :

Chièvres, Belgium

Chièvres Air Base

latitude: 50-34N, longitude: 003-50E, elevation: 60 m

Current weather observation

The report was made 27 minutes ago, at 13:25 UTC
Wind 10 kt from the West/Southwest
Temperature 21°C
Humidity 60%
Pressure 1016 hPa
Visibility 10 km or more

METAR: EBCV 241325Z AUTO 25010KT 9999 OVC031/// 21/13 Q1016 BLU

Time: 15:52 (13:52 UTC)

Forecast

The report was made 2 hours and 11 minutes ago, at 11:41 UTC
Forecast valid from 24 at 13 UTC to 24 at 22 UTC
Wind 13 kt from the West/Southwest
Visibility 10 km or more
Scattered clouds at a height of 2400 ft
Broken clouds at a height of 3000 ft

TAF: EBCV 241141Z 2413/2422 24013KT 9999 SCT024 BKN030 BY EBWM

Weather observations and forecasts of more than 4000 airports (METAR and TAF reports).

The available stations are represented by yellow and red dots on the map.

Hover mouse over dot to see the name of the station.

Then click to see weather observations and forecasts.

To change the map : click on the green buttons with a black cross to zoom in, on the green button with a dash to zoom out, or on the green arrows for adjacent maps.


METAR-TAF: